Tiempo atmosférico en la estación meteorológica de Briviesca, Burgos (730 m.)



Fecha
DESCASC
Temp. máxima en grados centígrados (hora)
DESCASC
Temp. mínima en grados centígrados (hora)
DESCASC
Temp. media en grados centígrados
DESCASC
Racha de viento máxima en m/sg (hora)
DESCASC
Velocidad máxima media en intervalos de 10 minutos(hora)
DESCASC
Precipitaciones diarias en mm
DESCASC
Precipitaciones de 00:00 a 06:00 en mm
DESCASC
Precipitaciones de 06:00 a 12:00 en mm
DESCASC
Precipitaciones de 12:00 a 18:00 en mm
DESCASC
Precipitaciones de 18:00 a 24:00 en mm
DESCASC
20-09-2020 18.3 (13:30) 12.6 (07:50) 15.4 5.83 (03:20) 3.89 (03:20) 5.4 0 0 5.4 0
19-09-2020 19.1 (15:20) 12.3 (07:10) 15.7 11.67 (15:30) 7.22 (15:30) 27.6 0 8.8 11.2 7.6
18-09-2020 22.9 (16:30) 14.2 (11:10) 18.5 11.67 (06:00) 7.78 (06:10) 17.4 8.4 8 0.8 0.2
17-09-2020 27.2 (18:10) 16.5 (00:00) 21.9 8.61 (20:40) 4.72 (20:40) 0.6 0.4 0 0.2 0
16-09-2020 29 (17:30) 12.5 (00:00) 20.8 6.94 (15:20) 4.17 (21:20) 0 0 0 0 0
15-09-2020 29 (16:20) 13.6 (00:00) 21.3 8.33 (01:50) 5.28 (16:30) 0.2 0.2 0 0 0
14-09-2020 29 (15:10) 12.1 (00:00) 20.6 8.89 (17:00) 6.11 (17:00) 0 0 0 0 0
13-09-2020 30.3 (16:50) 9.3 (00:00) 19.8 8.89 (19:30) 6.11 (19:40) 0 0 0 0 0
12-09-2020 28.2 (16:10) 9.6 (00:00) 18.9 8.61 (14:10) 5 (18:50) 0 0 0 0 0
11-09-2020 27.5 (17:50) 10.1 (00:00) 18.8 7.5 (19:20) 4.72 (19:10) 0 0 0 0 0
10-09-2020 26.9 (17:30) 9.2 (00:00) 18 8.89 (17:30) 5 (20:00) 0 0 0 0 0
09-09-2020 27.2 (17:10) 7.8 (00:00) 17.5 9.44 (17:50) 5.56 (18:00) 0 0 0 0 0
08-09-2020 24.8 (17:40) 8.4 (00:00) 16.6 10.28 (14:50) 6.39 (14:50) 0 0 0 0 0
07-09-2020 20.1 (16:10) 10 (23:20) 15.1 10 (18:00) 6.67 (19:00) 0 0 0 0 0
06-09-2020 19.5 (16:50) 13.4 (00:00) 16.4 10.28 (17:00) 6.39 (17:00) 0 0 0 0 0
05-09-2020 24 (15:40) 12.3 (00:00) 18.2 8.61 (14:30) 5.83 (18:50) 0 0 0 0 0
04-09-2020 30.5 (17:30) 7.8 (00:00) 19.2 7.22 (16:50) 5 (17:00) 0 0 0 0 0
03-09-2020 29.8 (17:40) 6.4 (00:00) 18.1 6.39 (19:20) 3.89 (19:10) 0 0 0 0 0
02-09-2020 23.7 (17:30) 8.9 (00:00) 16.3 7.5 (13:50) 4.72 (22:00) 0 0 0 0 0
01-09-2020 24.1 (16:40) 9.5 (00:00) 16.8 10.83 (15:10) 5.83 (19:40) 0 0 0 0 0
31-08-2020 23.7 (17:00) 3.2 (00:00) 13.5 7.22 (15:40) 3.89 (21:40) 0 0 0 0 0
30-08-2020 17.8 (18:00) 8.2 (00:00) 13 8.33 (18:10) 5.28 (18:20) 0 0 0 0 0
29-08-2020 18.3 (16:20) 8.1 (00:00) 13.2 13.33 (16:30) 7.22 (17:20) 0.6 0 0 0 0.6
28-08-2020 19 (02:30) 13.2 (00:00) 16.1 6.94 (00:20) 4.72 (01:40) 2.4 0 2 0.4 0
27-08-2020 32 (17:50) 13.9 (00:00) 22.9 10.56 (18:10) 6.67 (18:10) 0 0 0 0 0
26-08-2020 31.5 (17:50) 12.4 (00:00) 21.9 8.33 (18:50) 5.28 (18:50) 0 0 0 0 0
25-08-2020 33.4 (17:40) 9.4 (00:00) 21.4 9.17 (19:10) 6.67 (19:20) 0 0 0 0 0
24-08-2020 26.9 (19:30) 9.3 (00:00) 18.1 8.06 (13:20) 3.89 (11:30) 0 0 0 0 0
23-08-2020 24.8 (17:50) 11.1 (00:00) 17.9 9.44 (16:30) 5 (20:40) 0 0 0 0 0
22-08-2020 26.7 (18:20) 14.6 (00:00) 20.7 10 (18:50) 7.22 (18:40) 0 0 0 0 0

Gráficas

Temp. máximas Temp. mínimas Temp. medias Precipitaciones Rachas de viento máximas Velocidades máximas media en intervalos de 10 minutos

Datos horarios

Fecha y hora oficial Temperatura (ºC) Velocidad del viento (km/h) Dirección del viento Racha (km/h) Dirección de racha Precipitación (mm) Presión (hPa) Tendencia (hPa) Humedad (%)
2020-09-20 23:00:00 14.9 0 Calma 8 Este 0 -- -- 92
2020-09-20 22:00:00 15.2 7 Este 11 Nordeste 0 -- -- 90
2020-09-20 21:00:00 15.7 5 Nordeste 13 Nordeste 0 -- -- 91
2020-09-20 20:00:00 16.9 5 Norte 8 Norte 0 -- -- 88
2020-09-20 19:00:00 17.6 0 Calma 5 Norte 0 -- -- 78
2020-09-20 18:00:00 17.6 0 Calma 0 Calma 0.2 -- -- 81
2020-09-20 17:00:00 16.8 0 Calma 8 Sur 0.8 -- -- 88
2020-09-20 16:00:00 16.8 6 Sur 12 Sudoeste 0.4 -- -- 90
2020-09-20 15:00:00 16.2 8 Sudoeste 13 Sur 4 -- -- 92
2020-09-20 14:00:00 17.8 7 Noroeste 11 Noroeste 0 -- -- 83
2020-09-20 13:00:00 17.7 5 Noroeste 12 Norte 0 -- -- 81
2020-09-20 12:00:00 17.1 7 Norte 12 Norte 0 -- -- 83
2020-09-20 11:00:00 15.7 4 Noroeste 15 Noroeste 0 -- -- 90
2020-09-20 10:00:00 15.3 10 Noroeste 15 Oeste 0 -- -- 89
2020-09-20 09:00:00 13.8 2 Este 6 Este 0 -- -- 97
2020-09-20 08:00:00 12.7 0 Calma 9 Sudoeste 0 -- -- 97
2020-09-20 07:00:00 13.7 9 Sudoeste 14 Sudoeste 0 -- -- 93
2020-09-20 06:00:00 14.5 4 Oeste 15 Sudoeste 0 -- -- 93
2020-09-20 05:00:00 14.4 6 Sudoeste 14 Oeste 0 -- -- 94
2020-09-20 04:00:00 14.1 6 Oeste 21 Sudoeste 0 -- -- 93
2020-09-20 03:00:00 14.2 11 Sudoeste 20 Sudoeste 0 -- -- 93
2020-09-20 02:00:00 13.7 11 Sudoeste 17 Sudoeste 0 -- -- 96
2020-09-20 01:00:00 13.5 0 Calma 6 Sudoeste 0 -- -- 98
2020-09-20 00:00:00 13.8 0 Calma 6 Oeste 0 -- -- 97
2020-09-19 23:00:00 13.8 7 Sudoeste 15 Sudoeste 0 -- -- 97
2020-09-19 22:00:00 13.9 6 Sudoeste 9 Oeste 0 -- -- 94
2020-09-19 21:00:00 14.1 2 Sudoeste 14 Sudoeste 0.4 -- -- 95
2020-09-19 20:00:00 14.1 3 Sudeste 17 Oeste 2.2 -- -- 93
2020-09-19 19:00:00 14 8 Oeste 19 Oeste 5 -- -- 93
2020-09-19 18:00:00 14.2 14 Oeste 37 Noroeste 7 -- -- 90
2020-09-19 17:00:00 18.1 20 Oeste 36 Sudoeste 0 -- -- 77
2020-09-19 16:00:00 18.1 20 Sudoeste 42 Oeste 0 -- -- 77
2020-09-19 15:00:00 17.9 22 Sudoeste 34 Sudoeste 0 -- -- 81
2020-09-19 14:00:00 15.9 6 Noroeste 19 Noroeste 0.6 -- -- 96
2020-09-19 13:00:00 15 12 Sudoeste 32 Sudoeste 3.6 -- -- 96
2020-09-19 12:00:00 14 13 Este 18 Este 6.8 -- -- 98
2020-09-19 11:00:00 14.4 12 Este 18 Este 2 -- -- 94
2020-09-19 10:00:00 15.5 4 Sudoeste 19 Sudoeste 0 -- -- 84
2020-09-19 09:00:00 13.6 2 Sudoeste 10 Sudoeste 0 -- -- 95
2020-09-19 08:00:00 12.3 0 Calma 8 Este 0 -- -- 94
2020-09-19 07:00:00 12.4 4 Noroeste 11 Sur 0 -- -- 94
2020-09-19 06:00:00 12.7 0 Calma 5 Oeste 0 -- -- 95
2020-09-19 05:00:00 13 0 Calma 4 Sudoeste 0 -- -- 97
2020-09-19 04:00:00 12.7 0 Calma 6 Sudoeste 0 -- -- 97
2020-09-19 03:00:00 12.6 0 Calma 10 Este 0 -- -- 93
2020-09-19 02:00:00 12.9 0 Calma -- -- 0 -- -- 96
2020-09-19 01:00:00 13 0 Calma 4 Sudeste 0 -- -- 95
2020-09-19 00:00:00 14.5 0 Calma 8 Oeste 0 -- -- 90
2020-09-18 23:00:00 15.2 5 Oeste 12 Norte 0.2 -- -- 88
2020-09-18 22:00:00 16.6 6 Sudoeste 36 Sudoeste 0 -- -- 73
2020-09-18 21:00:00 17.5 25 Sudoeste 36 Sudoeste 0 -- -- 70
2020-09-18 20:00:00 19.4 9 Sudeste 14 Sudeste 0 -- -- 73
2020-09-18 19:00:00 21.5 5 Este 16 Este 0 -- -- 63
2020-09-18 18:00:00 22 11 Sudeste 22 Sudeste 0 -- -- 59
2020-09-18 17:00:00 21.5 12 Sur 28 Sudoeste 0 -- -- 61
2020-09-18 16:00:00 22.1 20 Sudoeste 30 Sudoeste 0 -- -- 59
2020-09-18 15:00:00 17.4 14 Sur 35 Sur 0.2 -- -- 75
2020-09-18 14:00:00 19.2 17 Sudoeste 27 Sudoeste 0 -- -- 73
2020-09-18 13:00:00 16.6 10 Sudoeste 18 Sudoeste 0.6 -- -- 84
2020-09-18 12:00:00 14.7 9 Sur 30 Sudoeste 0.8 -- -- 92
2020-09-18 11:00:00 14.4 18 Sudoeste 36 Sudoeste 0.6 -- -- 93
2020-09-18 10:00:00 14.9 10 Sudoeste 18 Sudoeste 0 -- -- 89
2020-09-18 09:00:00 14.9 5 Sur 31 Sudoeste 4.2 -- -- 92
2020-09-18 08:00:00 16.1 11 Sudeste 26 Este 0.6 -- -- 97
2020-09-18 07:00:00 16 9 Este 39 Este 1.8 -- -- 92
2020-09-18 06:00:00 15.9 24 Este 42 Este 2.6 -- -- 95
2020-09-18 05:00:00 16.3 14 Sudeste 27 Sudeste 0.8 -- -- 90
2020-09-18 04:00:00 16.1 6 Sudeste 15 Sur 0.2 -- -- 92
2020-09-18 03:00:00 16.2 5 Sudoeste 28 Sudoeste 2.2 -- -- 92
2020-09-18 02:00:00 17.5 12 Sur 35 Sudeste 2.6 -- -- 86
2020-09-18 01:00:00 18.9 5 Sudeste 13 Este 0 -- -- 73
2020-09-18 00:00:00 19.1 8 Este 14 Nordeste 0 -- -- 71
2020-09-17 23:00:00 19.8 0 Calma 11 Sudoeste 0 -- -- 67
2020-09-17 22:00:00 21.9 6 Sur 18 Este 0 -- -- 60
2020-09-17 21:00:00 23.9 15 Sudeste 31 Sudeste 0 -- -- 53
2020-09-17 20:00:00 24.7 7 Sudeste 18 Este 0 -- -- 51
2020-09-17 19:00:00 26.5 2 Este 12 Sudoeste 0 -- -- 47
2020-09-17 18:00:00 27.1 4 Noroeste 12 Norte 0 -- -- 49
2020-09-17 17:00:00 25 4 Noroeste 15 Sudoeste 0.2 -- -- 63
2020-09-17 16:00:00 24.4 9 Este 27 Sudeste 0 -- -- 58
2020-09-17 15:00:00 25.5 6 Sudeste 21 Este 0 -- -- 53
2020-09-17 14:00:00 25 10 Este 16 Sudeste 0 -- -- 57
2020-09-17 13:00:00 23.9 8 Sudeste 19 Sudeste 0 -- -- 63
2020-09-17 12:00:00 21.9 11 Sudeste 24 Sudeste 0 -- -- 72
2020-09-17 11:00:00 19.5 7 Sudeste 17 Este 0 -- -- 83
2020-09-17 10:00:00 17.8 2 Este 11 Sudoeste 0 -- -- 88
2020-09-17 09:00:00 17.3 0 Calma 6 Oeste 0 -- -- 91
2020-09-17 08:00:00 16.5 0 Calma -- -- 0 -- -- 94
2020-09-17 07:00:00 17 0 Calma -- -- 0 -- -- 94
2020-09-17 06:00:00 17.2 0 Calma -- -- 0 -- -- 91
2020-09-17 05:00:00 17.7 0 Calma 8 Sudoeste 0.2 -- -- 92
2020-09-17 04:00:00 18.6 0 Calma 8 Sudoeste 0.2 -- -- 85
2020-09-17 03:00:00 19.6 0 Calma 10 Sudoeste 0 -- -- 76
2020-09-17 02:00:00 19.7 3 Nordeste 16 Sudoeste 0 -- -- 74
2020-09-17 01:00:00 19.4 5 Sudoeste 8 Sudoeste 0 -- -- 73
2020-09-17 00:00:00 20.2 3 Sur 13 Este 0 -- -- 70
2020-09-16 23:00:00 21.5 7 Este 17 Nordeste 0 -- -- 66
2020-09-16 22:00:00 22.5 10 Nordeste 22 Este 0 -- -- 63
2020-09-16 21:00:00 23.8 12 Nordeste 20 Este 0 -- -- 58
2020-09-16 20:00:00 25.9 6 Este 19 Este 0 -- -- 41
2020-09-16 19:00:00 27.7 13 Este 22 Este 0 -- -- 36
2020-09-16 18:00:00 28.9 13 Este 23 Nordeste 0 -- -- 34
2020-09-16 17:00:00 28.3 9 Este 20 Este 0 -- -- 36
2020-09-16 16:00:00 28.4 10 Este 25 Nordeste 0 -- -- 36
2020-09-16 15:00:00 28 5 Norte 18 Nordeste 0 -- -- 39
2020-09-16 14:00:00 27.4 8 Norte 15 Norte 0 -- -- 41
2020-09-16 13:00:00 25.2 5 Nordeste 12 Nordeste 0 -- -- 49
2020-09-16 12:00:00 22.8 3 Noroeste 9 Noroeste 0 -- -- 59
2020-09-16 11:00:00 19.6 5 Norte 9 Nordeste 0 -- -- 71
2020-09-16 10:00:00 16.8 0 Calma 9 Sudoeste 0 -- -- 79
2020-09-16 09:00:00 13.6 6 Sudoeste 11 Sudoeste 0 -- -- 87
2020-09-16 08:00:00 12.6 5 Sur 13 Sur 0 -- -- 89
2020-09-16 07:00:00 13.1 4 Sur 13 Sudoeste 0 -- -- 88
2020-09-16 06:00:00 13.7 8 Sudoeste 15 Sudoeste 0 -- -- 86
2020-09-16 05:00:00 14 4 Sur 9 Sudoeste 0 -- -- 84
2020-09-16 04:00:00 14.3 2 Sudoeste 11 Sudoeste 0 -- -- 83
2020-09-16 03:00:00 14.9 5 Sudoeste 14 Sudoeste 0 -- -- 81
2020-09-16 02:00:00 15.6 6 Sudoeste 13 Sudoeste 0 -- -- 76
2020-09-16 01:00:00 16.3 6 Sur 14 Sur 0 -- -- 73
2020-09-16 00:00:00 16.5 6 Sudoeste 11 Sur 0 -- -- 73
2020-09-15 23:00:00 18.5 6 Sudeste 15 Sudeste 0 -- -- 67
2020-09-15 22:00:00 18.1 3 Sudoeste 8 Sudoeste 0 -- -- 64
2020-09-15 21:00:00 20.3 0 Calma 7 Noroeste 0 -- -- 58
2020-09-15 20:00:00 25.6 6 Noroeste 18 Oeste 0 -- -- 44
2020-09-15 19:00:00 27 13 Oeste 22 Oeste 0 -- -- 40
2020-09-15 18:00:00 28.6 12 Sudoeste 28 Oeste 0 -- -- 36
2020-09-15 17:00:00 28.8 18 Sudoeste 28 Sudoeste 0 -- -- 35
2020-09-15 16:00:00 28.9 16 Oeste 30 Sudoeste 0 -- -- 36
2020-09-15 15:00:00 26.6 13 Sudoeste 25 Sudoeste 0 -- -- 40
2020-09-15 14:00:00 26.1 8 Norte 26 Sudoeste 0 -- -- 49
2020-09-15 13:00:00 25.7 7 Oeste 17 Oeste 0 -- -- 50
2020-09-15 12:00:00 22.9 4 Noroeste 9 Nordeste 0 -- -- 62
2020-09-15 11:00:00 20.4 2 Norte 6 Nordeste 0 -- -- 76
2020-09-15 10:00:00 17.7 0 Calma 4 Nordeste 0 -- -- 85
2020-09-15 09:00:00 14.3 0 Calma 6 Sudoeste 0 -- -- 98
2020-09-15 08:00:00 14.4 2 Sudoeste 10 Sur 0 -- -- 92
2020-09-15 07:00:00 15.2 4 Sur 8 Sudeste 0 -- -- 93
2020-09-15 06:00:00 16 0 Calma 10 Nordeste 0 -- -- 90
2020-09-15 05:00:00 16.5 5 Este 19 Sudoeste 0.2 -- -- 88
2020-09-15 04:00:00 18.2 16 Sudoeste 27 Sudoeste 0 -- -- 76
2020-09-15 03:00:00 18.5 3 Norte 17 Sudoeste 0 -- -- 73
2020-09-15 02:00:00 18.7 14 Sudoeste 30 Sudoeste 0 -- -- 68
2020-09-15 01:00:00 16.7 3 Sudoeste 9 Oeste 0 -- -- 75
2020-09-15 00:00:00 19 0 Calma 32 Oeste 0 -- -- 67
2020-09-14 23:00:00 21.7 17 Oeste 29 Oeste 0 -- -- 56
2020-09-14 22:00:00 21.9 11 Sudeste 22 Sudeste 0 -- -- 47
2020-09-14 21:00:00 22.7 11 Sudeste 19 Sudeste 0 -- -- 45
2020-09-14 20:00:00 26 14 Este 31 Este 0 -- -- 38
2020-09-14 19:00:00 27 18 Este 28 Este 0 -- -- 37
2020-09-14 18:00:00 28.3 20 Este 31 Sudeste 0 -- -- 34
2020-09-14 17:00:00 27.2 22 Este 32 Este 0 -- -- 37
2020-09-14 16:00:00 27.8 14 Este 28 Sudeste 0 -- -- 36
2020-09-14 15:00:00 28.6 14 Este 25 Este 0 -- -- 35
2020-09-14 14:00:00 27.1 16 Este 31 Nordeste 0 -- -- 39
2020-09-14 13:00:00 26.4 15 Sudeste 23 Sudeste 0 -- -- 40
2020-09-14 12:00:00 24 12 Este 20 Este 0 -- -- 47
2020-09-14 11:00:00 20.5 10 Sudeste 19 Este 0 -- -- 56
2020-09-14 10:00:00 19.3 5 Oeste 21 Este 0 -- -- 60
2020-09-14 09:00:00 14.7 0 Calma 13 Sudoeste 0 -- -- 76
2020-09-14 08:00:00 12.3 0 Calma 10 Sudoeste 0 -- -- 79
2020-09-14 07:00:00 12.2 2 Sur 9 Sudoeste 0 -- -- 80
2020-09-14 06:00:00 13.4 4 Sudoeste 9 Sudoeste 0 -- -- 75
2020-09-14 05:00:00 15.3 7 Sudoeste 10 Sudoeste 0 -- -- 69
2020-09-14 04:00:00 15.4 5 Sudoeste 14 Sudoeste 0 -- -- 68
2020-09-14 03:00:00 15.4 8 Oeste 14 Oeste 0 -- -- 69
2020-09-14 02:00:00 16 4 Sudoeste 11 Sur 0 -- -- 68
2020-09-14 01:00:00 16.6 7 Sudoeste 10 Sudoeste 0 -- -- 66
2020-09-14 00:00:00 17.7 4 Sudoeste 8 Sudoeste 0 -- -- 63
2020-09-13 23:00:00 20.9 2 Sudoeste 10 Sur 0 -- -- 49
2020-09-13 22:00:00 23.7 5 Este 22 Sudeste 0 -- -- 43
2020-09-13 21:00:00 25 16 Sudeste 24 Este 0 -- -- 41
2020-09-13 20:00:00 27.8 16 Este 32 Sudeste 0 -- -- 38
2020-09-13 19:00:00 29.1 17 Este 27 Este 0 -- -- 37
2020-09-13 18:00:00 29.4 17 Este 30 Este 0 -- -- 35
2020-09-13 17:00:00 30.2 18 Este 27 Este 0 -- -- 33
2020-09-13 16:00:00 29.6 18 Este 29 Este 0 -- -- 36
2020-09-13 15:00:00 28.4 16 Este 26 Este 0 -- -- 39
2020-09-13 14:00:00 26.5 13 Este 22 Este 0 -- -- 43
2020-09-13 13:00:00 24.7 10 Sudeste 19 Este 0 -- -- 47
2020-09-13 12:00:00 23 10 Este 19 Este 0 -- -- 54
2020-09-13 11:00:00 18.6 4 Norte 7 Noroeste 0 -- -- 63
2020-09-13 10:00:00 15.1 3 Oeste 7 Sur 0 -- -- 68
2020-09-13 09:00:00 10.9 4 Sudoeste 8 Sudoeste 0 -- -- 78
2020-09-13 08:00:00 9.4 3 Sudoeste 10 Sudeste 0 -- -- 82
2020-09-13 07:00:00 9.8 0 Calma 7 Sur 0 -- -- 77
2020-09-13 06:00:00 10.1 8 Sudoeste 15 Sur 0 -- -- 75
2020-09-13 05:00:00 10.5 4 Sudoeste 12 Sudoeste 0 -- -- 79
2020-09-13 04:00:00 11.3 8 Sudoeste 16 Sudoeste 0 -- -- 76
2020-09-13 03:00:00 11.8 8 Sudoeste 12 Sudoeste 0 -- -- 79
2020-09-13 02:00:00 13 3 Oeste 8 Sudoeste 0 -- -- 77
2020-09-13 01:00:00 14.1 3 Sudoeste 14 Sur 0 -- -- 78
2020-09-13 00:00:00 16.4 9 Sudoeste 13 Sudoeste 0 -- -- 72
2020-09-12 23:00:00 17.2 7 Sudoeste 19 Sudeste 0 -- -- 63
2020-09-12 22:00:00 20.1 11 Sudeste 20 Sudeste 0 -- -- 56
2020-09-12 21:00:00 20.6 12 Este 16 Este 0 -- -- 42
2020-09-12 20:00:00 24.7 12 Este 26 Este 0 -- -- 34
2020-09-12 19:00:00 26.9 16 Este 27 Este 0 -- -- 30
2020-09-12 18:00:00 27.8 12 Nordeste 30 Este 0 -- -- 30
2020-09-12 17:00:00 28 13 Nordeste 31 Este 0 -- -- 30
2020-09-12 16:00:00 28 15 Este 27 Nordeste 0 -- -- 23
2020-09-12 15:00:00 27 15 Este 31 Nordeste 0 -- -- 33
2020-09-12 14:00:00 26.4 8 Nordeste 24 Este 0 -- -- 41
2020-09-12 13:00:00 24.7 9 Este 17 Nordeste 0 -- -- 43
2020-09-12 12:00:00 21.6 6 Norte 12 Noroeste 0 -- -- 65
2020-09-12 11:00:00 18.1 2 Norte 6 Norte 0 -- -- 77
2020-09-12 10:00:00 14.6 0 Calma 8 Sudoeste 0 -- -- 85
2020-09-12 09:00:00 10.9 4 Sudoeste 13 Sudoeste 0 -- -- 94
2020-09-12 08:00:00 9.7 6 Oeste 15 Sudoeste 0 -- -- 95
2020-09-12 07:00:00 9.7 10 Sudoeste 14 Sudoeste 0 -- -- 94
2020-09-12 06:00:00 10.3 0 Calma 10 Sudoeste 0 -- -- 96
2020-09-12 05:00:00 10.7 0 Calma 12 Sudoeste 0 -- -- 94
2020-09-12 04:00:00 11.4 9 Sudoeste 14 Sudoeste 0 -- -- 93
2020-09-12 03:00:00 12.6 5 Sudoeste 11 Sudoeste 0 -- -- 90
2020-09-12 02:00:00 13.3 5 Sudoeste 10 Sudoeste 0 -- -- 91
2020-09-12 01:00:00 14.2 5 Sudoeste 12 Sudoeste 0 -- -- 83
2020-09-12 00:00:00 15.4 4 Sur 16 Sudeste 0 -- -- 81
2020-09-11 23:00:00 18 13 Sudeste 17 Sudeste 0 -- -- 75
2020-09-11 22:00:00 18.6 10 Sudeste 23 Este 0 -- -- 72
2020-09-11 21:00:00 20.5 15 Este 23 Este 0 -- -- 65
2020-09-11 20:00:00 23.8 13 Nordeste 27 Este 0 -- -- 51
2020-09-11 19:00:00 26.3 16 Este 24 Nordeste 0 -- -- 40
2020-09-11 18:00:00 27.4 8 Este 22 Este 0 -- -- 37
2020-09-11 17:00:00 27 8 Este 26 Este 0 -- -- 40
2020-09-11 16:00:00 26.9 10 Norte 24 Nordeste 0 -- -- 38
2020-09-11 15:00:00 25.6 12 Nordeste 25 Nordeste 0 -- -- 41
2020-09-11 14:00:00 24.6 13 Nordeste 21 Sudeste 0 -- -- 46
2020-09-11 13:00:00 23.6 9 Este 20 Nordeste 0 -- -- 52
2020-09-11 12:00:00 21.7 5 Norte 15 Nordeste 0 -- -- 63
2020-09-11 11:00:00 19 4 Norte 8 Norte 0 -- -- 68
2020-09-11 10:00:00 15.3 4 Sudoeste 7 Oeste 0 -- -- 79
2020-09-11 09:00:00 11.4 0 Calma 7 Sudoeste 0 -- -- 93
2020-09-11 08:00:00 10.2 3 Sur 12 Sudoeste 0 -- -- 94
2020-09-11 07:00:00 10.5 5 Sudoeste 10 Sur 0 -- -- 92
2020-09-11 06:00:00 10.3 0 Calma 8 Sudoeste 0 -- -- 92
2020-09-11 05:00:00 10.4 0 Calma 4 Oeste 0 -- -- 92
2020-09-11 04:00:00 11.6 0 Calma 15 Sudeste 0 -- -- 83
2020-09-11 03:00:00 14.8 9 Sudeste 15 Sudeste 0 -- -- 78
2020-09-11 02:00:00 12.8 0 Calma 9 Sudeste 0 -- -- 82
2020-09-11 01:00:00 13.6 0 Calma 10 Sudoeste 0 -- -- 76
2020-09-11 00:00:00 14.3 0 Calma 10 Sur 0 -- -- 75
2020-09-10 23:00:00 16.3 3 Sur 21 Este 0 -- -- 63
2020-09-10 22:00:00 18.6 13 Este 28 Este 0 -- -- 54
2020-09-10 21:00:00 19.7 15 Este 26 Nordeste 0 -- -- 52
2020-09-10 20:00:00 22.8 18 Este 26 Este 0 -- -- 46
2020-09-10 19:00:00 25.3 16 Este 26 Nordeste 0 -- -- 40
2020-09-10 18:00:00 26.3 15 Nordeste 32 Nordeste 0 -- -- 36
2020-09-10 17:00:00 26.1 6 Este 27 Nordeste 0 -- -- 37
2020-09-10 16:00:00 26.3 13 Nordeste 23 Nordeste 0 -- -- 38
2020-09-10 15:00:00 26.3 9 Este 24 Este 0 -- -- 37
2020-09-10 14:00:00 25 14 Este 24 Este 0 -- -- 40
2020-09-10 13:00:00 24.3 12 Nordeste 21 Nordeste 0 -- -- 44
2020-09-10 12:00:00 21.3 5 Norte 12 Norte 0 -- -- 49
2020-09-10 11:00:00 18.2 4 Norte 9 Noroeste 0 -- -- 60
2020-09-10 10:00:00 15.3 3 Noroeste 6 Sudoeste 0 -- -- 70
2020-09-10 09:00:00 11.4 4 Sudoeste 8 Sur 0 -- -- 84
2020-09-10 08:00:00 9.4 0 Calma 9 Sudoeste 0 -- -- 87
2020-09-10 07:00:00 10.3 2 Sur 14 Sur 0 -- -- 86
2020-09-10 06:00:00 10.9 4 Sur 11 Sudoeste 0 -- -- 86
2020-09-10 05:00:00 11.7 8 Sudoeste 14 Sur 0 -- -- 84
2020-09-10 04:00:00 12.1 3 Sudoeste 10 Sudeste 0 -- -- 85
2020-09-10 03:00:00 13 5 Sudoeste 13 Sur 0 -- -- 81
2020-09-10 02:00:00 14 4 Sur 11 Sudoeste 0 -- -- 76
2020-09-10 01:00:00 15.6 9 Este 19 Este 0 -- -- 71
2020-09-10 00:00:00 16.4 11 Este 24 Este 0 -- -- 68
2020-09-09 23:00:00 17.2 12 Este 16 Este 0 -- -- 66
2020-09-09 22:00:00 18.1 7 Sur 20 Nordeste 0 -- -- 63
2020-09-09 21:00:00 19.3 10 Nordeste 24 Nordeste 0 -- -- 58
2020-09-09 20:00:00 22.7 18 Nordeste 27 Nordeste 0 -- -- 45
2020-09-09 19:00:00 25.2 18 Nordeste 31 Este 0 -- -- 36
2020-09-09 18:00:00 26.7 20 Este 34 Este 0 -- -- 33
2020-09-09 17:00:00 27.1 11 Este 28 Nordeste 0 -- -- 31
2020-09-09 16:00:00 26.7 10 Nordeste 28 Este 0 -- -- 32
2020-09-09 15:00:00 26.3 15 Nordeste 26 Nordeste 0 -- -- 31
2020-09-09 14:00:00 25 6 Este 20 Nordeste 0 -- -- 35
2020-09-09 13:00:00 23.1 5 Norte 14 Nordeste 0 -- -- 41
2020-09-09 12:00:00 20.8 6 Norte 10 Este 0 -- -- 50
2020-09-09 11:00:00 17.7 2 Nordeste 9 Norte 0 -- -- 61
2020-09-09 10:00:00 14.2 0 Calma 8 Sur 0 -- -- 72
2020-09-09 09:00:00 10.4 3 Sur 11 Sudoeste 0 -- -- 84
2020-09-09 08:00:00 7.8 4 Sudoeste 9 Sudoeste 0 -- -- 92
2020-09-09 07:00:00 8.1 3 Sudoeste 12 Sudeste 0 -- -- 91
2020-09-09 06:00:00 7.9 4 Sudoeste 9 Sudoeste 0 -- -- 90
2020-09-09 05:00:00 8.9 5 Sudoeste 8 Sudoeste 0 -- -- 88
2020-09-09 04:00:00 9.5 3 Sur 12 Sudoeste 0 -- -- 86
2020-09-09 03:00:00 9.9 5 Sudoeste 10 Sudoeste 0 -- -- 84
2020-09-09 02:00:00 10.6 2 Sur 9 Sudeste 0 -- -- 83
2020-09-09 01:00:00 10.7 0 Calma 6 Oeste 0 -- -- 80
2020-09-09 00:00:00 13.2 3 Oeste 10 Sur 0 -- -- 72
2020-09-08 23:00:00 13.5 3 Sur 5 Sudoeste 0 -- -- 74
2020-09-08 22:00:00 15 0 Calma 14 Este 0 -- -- 64
2020-09-08 21:00:00 18.3 10 Este 24 Este 0 -- -- 56
2020-09-08 20:00:00 22.5 13 Este 28 Sudeste 0 -- -- 29
2020-09-08 19:00:00 24.3 18 Este 30 Este 0 -- -- 25
2020-09-08 18:00:00 24.6 17 Este 31 Este 0 -- -- 26
2020-09-08 17:00:00 24.4 15 Este 33 Este 0 -- -- 27
2020-09-08 16:00:00 23.6 17 Este 37 Este 0 -- -- 28
2020-09-08 15:00:00 23 19 Este 37 Este 0 -- -- 33
2020-09-08 14:00:00 21.2 20 Este 31 Este 0 -- -- 39
2020-09-08 13:00:00 20 14 Este 27 Este 0 -- -- 45
2020-09-08 12:00:00 18.5 15 Nordeste 24 Este 0 -- -- 51
2020-09-08 11:00:00 16.5 12 Nordeste 22 Este 0 -- -- 63
2020-09-08 10:00:00 14.2 9 Este 15 Este 0 -- -- 79
2020-09-08 09:00:00 11 6 Sur 13 Sur 0 -- -- 93
2020-09-08 08:00:00 8.9 4 Sudoeste 12 Sur 0 -- -- 92
2020-09-08 07:00:00 9.4 11 Sur 14 Sur 0 -- -- 96
2020-09-08 06:00:00 9.9 10 Sudeste 19 Sudeste 0 -- -- 93
2020-09-08 05:00:00 9.6 9 Sudeste 20 Sudeste 0 -- -- 92
2020-09-08 04:00:00 9 4 Sudeste 13 Este 0 -- -- 91
2020-09-08 03:00:00 9.7 8 Este 13 Este 0 -- -- 89
2020-09-08 02:00:00 11.1 7 Sudeste 27 Nordeste 0 -- -- 83
2020-09-08 01:00:00 10 0 Calma 19 Nordeste 0 -- -- 82
2020-09-08 00:00:00 11 13 Nordeste 22 Este 0 -- -- 78
2020-09-07 23:00:00 10.6 3 Sudoeste 20 Nordeste 0 -- -- 74
2020-09-07 22:00:00 11.3 5 Nordeste 13 Sudeste 0 -- -- 68
2020-09-07 21:00:00 13.3 8 Sudeste 23 Nordeste 0 -- -- 61
2020-09-07 20:00:00 16.1 17 Nordeste 32 Nordeste 0 -- -- 51
2020-09-07 19:00:00 18.1 24 Nordeste 35 Este 0 -- -- 43
2020-09-07 18:00:00 19.4 21 Nordeste 36 Nordeste 0 -- -- 43
2020-09-07 17:00:00 20 14 Nordeste 32 Nordeste 0 -- -- 42
2020-09-07 16:00:00 19.3 17 Nordeste 30 Nordeste 0 -- -- 47
2020-09-07 15:00:00 18.9 18 Nordeste 30 Norte 0 -- -- 49
2020-09-07 14:00:00 16.6 11 Nordeste 31 Este 0 -- -- 60
2020-09-07 13:00:00 15.9 15 Nordeste 27 Nordeste 0 -- -- 64
2020-09-07 12:00:00 15.9 14 Nordeste 24 Nordeste 0 -- -- 63
2020-09-07 11:00:00 14.5 14 Nordeste 23 Nordeste 0 -- -- 71
2020-09-07 10:00:00 13.9 9 Norte 15 Nordeste 0 -- -- 74
2020-09-07 09:00:00 12.9 9 Norte 20 Nordeste 0 -- -- 82
2020-09-07 08:00:00 11.7 15 Nordeste 22 Nordeste 0 -- -- 84
2020-09-07 07:00:00 11.1 10 Nordeste 14 Norte 0 -- -- 85
2020-09-07 06:00:00 12 6 Nordeste 16 Nordeste 0 -- -- 83
2020-09-07 05:00:00 12.2 8 Nordeste 22 Este 0 -- -- 86
2020-09-07 04:00:00 12.6 11 Este 19 Este 0 -- -- 84
2020-09-07 03:00:00 12.9 12 Este 20 Este 0 -- -- 83
2020-09-07 02:00:00 13.1 14 Este 20 Este 0 -- -- 82
2020-09-07 01:00:00 13.1 11 Este 17 Este 0 -- -- 80
2020-09-07 00:00:00 13.4 10 Nordeste 21 Este 0 -- -- 79
2020-09-06 23:00:00 13.7 15 Este 22 Este 0 -- -- 81
2020-09-06 22:00:00 14.3 15 Nordeste 23 Nordeste 0 -- -- 75
2020-09-06 21:00:00 14.4 12 Nordeste 24 Nordeste 0 -- -- 69
2020-09-06 20:00:00 16.1 13 Nordeste 31 Nordeste 0 -- -- 60
2020-09-06 19:00:00 17.4 17 Nordeste 35 Nordeste 0 -- -- 57
2020-09-06 18:00:00 18.5 15 Nordeste 30 Norte 0 -- -- 55
2020-09-06 17:00:00 18.9 23 Nordeste 37 Nordeste 0 -- -- 54
2020-09-06 16:00:00 18.9 14 Nordeste 26 Este 0 -- -- 56
2020-09-06 15:00:00 17.6 11 Norte 22 Nordeste 0 -- -- 61
2020-09-06 14:00:00 15.1 12 Este 19 Este 0 -- -- 77
2020-09-06 13:00:00 14.7 11 Este 19 Este 0 -- -- 81
2020-09-06 12:00:00 14.4 15 Este 22 Este 0 -- -- 84
2020-09-06 11:00:00 14.4 11 Este 18 Este 0 -- -- 83
2020-09-06 10:00:00 14.1 13 Este 23 Este 0 -- -- 86
2020-09-06 09:00:00 13.7 15 Este 22 Este 0 -- -- 89
2020-09-06 08:00:00 13.6 12 Este 20 Este 0 -- -- 92
2020-09-06 07:00:00 13.7 9 Este 18 Este 0 -- -- 94
2020-09-06 06:00:00 14.2 10 Este 16 Este 0 -- -- 90
2020-09-06 05:00:00 14.5 13 Este 18 Este 0 -- -- 86
2020-09-06 04:00:00 14.6 14 Este 20 Este 0 -- -- 86
2020-09-06 03:00:00 14.7 12 Este 21 Este 0 -- -- 86
2020-09-06 02:00:00 15.1 13 Este 23 Este 0 -- -- 84
2020-09-06 01:00:00 15.3 15 Este 22 Este 0 -- -- 83
2020-09-06 00:00:00 15.5 17 Este 29 Este 0 -- -- 85
2020-09-05 23:00:00 16.2 16 Este 28 Este 0 -- -- 81
2020-09-05 22:00:00 16.6 15 Nordeste 24 Este 0 -- -- 80
2020-09-05 21:00:00 17.4 16 Nordeste 26 Nordeste 0 -- -- 76
2020-09-05 20:00:00 18 17 Nordeste 27 Nordeste 0 -- -- 73
2020-09-05 19:00:00 19.2 19 Nordeste 30 Nordeste 0 -- -- 70
2020-09-05 18:00:00 22 17 Norte 30 Nordeste 0 -- -- 59
2020-09-05 17:00:00 22.9 18 Nordeste 31 Nordeste 0 -- -- 57
2020-09-05 16:00:00 23.5 18 Nordeste 29 Nordeste 0 -- -- 56
2020-09-05 15:00:00 23.5 18 Nordeste 31 Nordeste 0 -- -- 57
2020-09-05 14:00:00 23.1 18 Este 28 Este 0 -- -- 58
2020-09-05 13:00:00 21.1 14 Este 22 Este 0 -- -- 64
2020-09-05 12:00:00 21.8 15 Nordeste 23 Nordeste 0 -- -- 63
2020-09-05 11:00:00 20.1 10 Nordeste 19 Nordeste 0 -- -- 67
2020-09-05 10:00:00 18.4 8 Nordeste 19 Nordeste 0 -- -- 74
2020-09-05 09:00:00 16.5 11 Este 19 Este 0 -- -- 80
2020-09-05 08:00:00 12.8 4 Sudoeste 12 Sudeste 0 -- -- 87
2020-09-05 07:00:00 12.3 4 Oeste 13 Oeste 0 -- -- 85
2020-09-05 06:00:00 13.2 3 Sur 9 Oeste 0 -- -- 85
2020-09-05 05:00:00 12.8 4 Oeste 8 Oeste 0 -- -- 83
2020-09-05 04:00:00 13.7 2 Norte 8 Oeste 0 -- -- 81
2020-09-05 03:00:00 15.1 5 Oeste 8 Oeste 0 -- -- 76
2020-09-05 02:00:00 17.1 6 Sudoeste 10 Sudoeste 0 -- -- 67
2020-09-05 01:00:00 17.7 3 Oeste 12 Sudoeste 0 -- -- 66
2020-09-05 00:00:00 18 0 Calma 8 Este 0 -- -- 64
2020-09-04 23:00:00 19.6 8 Este 10 Nordeste 0 -- -- 59
2020-09-04 22:00:00 21.3 4 Nordeste 18 Este 0 -- -- 57
2020-09-04 21:00:00 24.5 12 Sudeste 19 Este 0 -- -- 48
2020-09-04 20:00:00 28.3 11 Sudeste 25 Sudeste 0 -- -- 35
2020-09-04 19:00:00 29.9 15 Sudeste 26 Sudeste 0 -- -- 31
2020-09-04 18:00:00 30.4 16 Este 26 Este 0 -- -- 31
2020-09-04 17:00:00 30.3 18 Este 26 Este 0 -- -- 31
2020-09-04 16:00:00 29.8 12 Este 25 Este 0 -- -- 33
2020-09-04 15:00:00 28.8 10 Este 20 Nordeste 0 -- -- 37
2020-09-04 14:00:00 27.5 8 Nordeste 26 Sudeste 0 -- -- 38
2020-09-04 13:00:00 25.6 9 Este 18 Este 0 -- -- 42
2020-09-04 12:00:00 23.6 8 Este 17 Este 0 -- -- 46
2020-09-04 11:00:00 21.2 9 Este 17 Este 0 -- -- 53
2020-09-04 10:00:00 16.6 4 Sudoeste 10 Sudoeste 0 -- -- 56
2020-09-04 09:00:00 12.1 5 Sudoeste 9 Sudoeste 0 -- -- 70
2020-09-04 08:00:00 8.1 3 Sur 10 Sudoeste 0 -- -- 82
2020-09-04 07:00:00 8.7 4 Sudoeste 7 Sudoeste 0 -- -- 77
2020-09-04 06:00:00 9.6 0 Calma 8 Sudoeste 0 -- -- 74
2020-09-04 05:00:00 9.9 2 Sudoeste 7 Sudoeste 0 -- -- 71
2020-09-04 04:00:00 11.6 4 Sudoeste 13 Sudoeste 0 -- -- 65
2020-09-04 03:00:00 13.6 3 Sudoeste 18 Sur 0 -- -- 58
2020-09-04 02:00:00 14.5 8 Sur 18 Sur 0 -- -- 55
2020-09-04 01:00:00 14 3 Sur 8 Sudoeste 0 -- -- 59
2020-09-04 00:00:00 14.5 4 Oeste 10 Sudoeste 0 -- -- 54
2020-09-03 23:00:00 16.5 6 Sudoeste 9 Sudoeste 0 -- -- 42
2020-09-03 22:00:00 19.9 8 Nordeste 19 Sudeste 0 -- -- 33
2020-09-03 21:00:00 22.9 14 Sudeste 19 Este 0 -- -- 27
2020-09-03 20:00:00 27.2 11 Este 23 Este 0 -- -- 19
2020-09-03 19:00:00 28.8 12 Sudeste 22 Este 0 -- -- 19
2020-09-03 18:00:00 29.8 9 Nordeste 16 Nordeste 0 -- -- 19
2020-09-03 17:00:00 29.5 6 Norte 17 Norte 0 -- -- 21
2020-09-03 16:00:00 29 5 Este 14 Este 0 -- -- 22
2020-09-03 15:00:00 27.5 9 Este 14 Norte 0 -- -- 27
2020-09-03 14:00:00 26.3 6 Este 21 Norte 0 -- -- 30
2020-09-03 13:00:00 23.7 5 Norte 13 Norte 0 -- -- 42
2020-09-03 12:00:00 20.7 5 Norte 10 Norte 0 -- -- 50
2020-09-03 11:00:00 17.3 3 Este 10 Nordeste 0 -- -- 63
2020-09-03 10:00:00 13.4 0 Calma 12 Sudeste 0 -- -- 74
2020-09-03 09:00:00 9.2 4 Sur 11 Sudeste 0 -- -- 85
2020-09-03 08:00:00 6.4 0 Calma 8 Sudoeste 0 -- -- 94
2020-09-03 07:00:00 6.6 0 Calma 9 Sur 0 -- -- 93
2020-09-03 06:00:00 7.3 3 Sudoeste 11 Sudoeste 0 -- -- 91
2020-09-03 05:00:00 7.9 4 Sur 9 Sur 0 -- -- 89
2020-09-03 04:00:00 8.3 2 Sudoeste 10 Sur 0 -- -- 88
2020-09-03 03:00:00 9.1 0 Calma 8 Sudoeste 0 -- -- 84
2020-09-03 02:00:00 9.8 2 Sudoeste 9 Sudoeste 0 -- -- 79
2020-09-03 01:00:00 12 4 Sudoeste 18 Sudeste 0 -- -- 71
2020-09-03 00:00:00 13.6 12 Sudeste 23 Sudeste 0 -- -- 67
2020-09-02 23:00:00 14.3 12 Sudeste 21 Sudeste 0 -- -- 69
2020-09-02 22:00:00 15.3 17 Sudeste 22 Sudeste 0 -- -- 69
2020-09-02 21:00:00 17.3 13 Este 22 Este 0 -- -- 64
2020-09-02 20:00:00 21 13 Este 22 Nordeste 0 -- -- 49
2020-09-02 19:00:00 23 14 Nordeste 23 Este 0 -- -- 43
2020-09-02 18:00:00 23.6 13 Nordeste 24 Nordeste 0 -- -- 41
2020-09-02 17:00:00 23.5 15 Nordeste 26 Nordeste 0 -- -- 44
2020-09-02 16:00:00 22.9 12 Nordeste 27 Nordeste 0 -- -- 45
2020-09-02 15:00:00 22.1 11 Nordeste 23 Nordeste 0 -- -- 47
2020-09-02 14:00:00 21 12 Este 27 Este 0 -- -- 50
2020-09-02 13:00:00 20 14 Nordeste 25 Este 0 -- -- 51
2020-09-02 12:00:00 18.9 14 Nordeste 22 Este 0 -- -- 52
2020-09-02 11:00:00 17.5 9 Este 21 Este 0 -- -- 65
2020-09-02 10:00:00 15.3 8 Sudeste 12 Sudeste 0 -- -- 79
2020-09-02 09:00:00 12.5 4 Sur 9 Sur 0 -- -- 93
2020-09-02 08:00:00 10.6 5 Sudoeste 13 Sudeste 0 -- -- 93
2020-09-02 07:00:00 11.1 9 Sudeste 14 Este 0 -- -- 93
2020-09-02 06:00:00 10.2 0 Calma 4 Nordeste 0 -- -- 91
2020-09-02 05:00:00 10.7 2 Oeste 6 Oeste 0 -- -- 94
2020-09-02 04:00:00 9.5 3 Sudoeste 4 Sudoeste 0 -- -- 95
2020-09-02 03:00:00 9.8 0 Calma 9 Sudeste 0 -- -- 88
2020-09-02 02:00:00 11.7 8 Sudeste 13 Este 0 -- -- 85
2020-09-02 01:00:00 11.5 9 Este 14 Este 0 -- -- 84
2020-09-02 00:00:00 12.4 9 Este 13 Este 0 -- -- 80
2020-09-01 23:00:00 12.7 6 Este 10 Este 0 -- -- 78
2020-09-01 22:00:00 14.3 7 Este 17 Nordeste 0 -- -- 73
2020-09-01 21:00:00 16.4 11 Nordeste 30 Nordeste 0 -- -- 66
2020-09-01 20:00:00 19.6 18 Nordeste 32 Nordeste 0 -- -- 50
2020-09-01 19:00:00 21.8 19 Nordeste 30 Nordeste 0 -- -- 42
2020-09-01 18:00:00 23.2 17 Nordeste 29 Nordeste 0 -- -- 39
2020-09-01 17:00:00 24 14 Nordeste 28 Nordeste 0 -- -- 35
2020-09-01 16:00:00 24 11 Nordeste 39 Norte 0 -- -- 37
2020-09-01 15:00:00 23.6 14 Norte 21 Nordeste 0 -- -- 34
2020-09-01 14:00:00 22.2 10 Norte 18 Norte 0 -- -- 37
2020-09-01 13:00:00 21.6 10 Norte 18 Norte 0 -- -- 39
2020-09-01 12:00:00 20.4 5 Nordeste 14 Norte 0 -- -- 45
2020-09-01 11:00:00 16.9 2 Norte 9 Noroeste 0 -- -- 58
2020-09-01 10:00:00 13.2 2 Norte 7 Sudoeste 0 -- -- 74
2020-09-01 09:00:00 11.1 3 Sur 9 Sudoeste 0 -- -- 83
2020-09-01 08:00:00 9.6 2 Sur 8 Sudoeste 0 -- -- 87
2020-09-01 07:00:00 9.5 3 Oeste 6 Sudoeste 0 -- -- 86
2020-09-01 06:00:00 10.5 2 Sur 11 Sur 0 -- -- 82
2020-09-01 05:00:00 10.6 4 Sur 12 Sudeste 0 -- -- 81
2020-09-01 04:00:00 10.3 0 Calma 11 Sur 0 -- -- 81
2020-09-01 03:00:00 11.1 4 Sur 9 Sudoeste 0 -- -- 81
2020-09-01 02:00:00 11.4 4 Sudoeste 8 Sudoeste 0 -- -- 79
2020-09-01 01:00:00 13.3 4 Sur 14 Sudeste 0 -- -- 72
2020-09-01 00:00:00 14.4 12 Sudeste 14 Sudeste 0 -- -- 69
2020-08-31 23:00:00 15.5 7 Sudeste 13 Este 0 -- -- 63
2020-08-31 22:00:00 16.6 6 Este 23 Este 0 -- -- 57
2020-08-31 21:00:00 18.6 12 Este 16 Este 0 -- -- 47
2020-08-31 20:00:00 20.7 6 Sudoeste 15 Oeste 0 -- -- 35
2020-08-31 19:00:00 22.2 8 Sudoeste 20 Oeste 0 -- -- 30
2020-08-31 18:00:00 22.8 12 Sudoeste 21 Oeste 0 -- -- 29
2020-08-31 17:00:00 23.7 12 Noroeste 24 Oeste 0 -- -- 28
2020-08-31 16:00:00 22.7 8 Noroeste 26 Sudoeste 0 -- -- 32
2020-08-31 15:00:00 21.7 12 Noroeste 19 Oeste 0 -- -- 35
2020-08-31 14:00:00 20.2 8 Noroeste 17 Nordeste 0 -- -- 44
2020-08-31 13:00:00 18.1 5 Nordeste 15 Nordeste 0 -- -- 56
2020-08-31 12:00:00 16 4 Nordeste 10 Nordeste 0 -- -- 64
2020-08-31 11:00:00 12.6 4 Norte 8 Nordeste 0 -- -- 78
2020-08-31 10:00:00 9.8 2 Oeste 5 Oeste 0 -- -- 86
2020-08-31 09:00:00 6.3 3 Sudoeste 7 Sudoeste 0 -- -- 97
2020-08-31 08:00:00 3.6 3 Sudoeste 6 Sudoeste 0 -- -- 99
2020-08-31 07:00:00 4.2 0 Calma 6 Sudoeste 0 -- -- 98
2020-08-31 06:00:00 4.2 0 Calma 5 Sur 0 -- -- 96
2020-08-31 05:00:00 5.3 0 Calma 7 Sudoeste 0 -- -- 96
2020-08-31 04:00:00 5.5 2 Sur 6 Sudoeste 0 -- -- 97
2020-08-31 03:00:00 5 0 Calma 5 Oeste 0 -- -- 96
2020-08-31 02:00:00 6.1 4 Oeste 8 Sudoeste 0 -- -- 91
2020-08-31 01:00:00 7.1 4 Sudoeste 10 Sur 0 -- -- 90
2020-08-31 00:00:00 8.2 4 Sur 17 Sudeste 0 -- -- 85
2020-08-30 23:00:00 9.5 10 Sudeste 14 Este 0 -- -- 79
2020-08-30 22:00:00 10.5 12 Este 18 Nordeste 0 -- -- 75
2020-08-30 21:00:00 12.3 5 Nordeste 22 Nordeste 0 -- -- 70
2020-08-30 20:00:00 13.9 13 Nordeste 24 Nordeste 0 -- -- 64
2020-08-30 19:00:00 15.1 13 Nordeste 30 Nordeste 0 -- -- 58
2020-08-30 18:00:00 17.8 12 Norte 22 Norte 0 -- -- 51
2020-08-30 17:00:00 16.5 8 Nordeste 21 Nordeste 0 -- -- 53
2020-08-30 16:00:00 13.7 8 Nordeste 28 Nordeste 0 -- -- 66
2020-08-30 15:00:00 15 13 Este 23 Nordeste 0 -- -- 64
2020-08-30 14:00:00 14.6 13 Norte 21 Norte 0 -- -- 61
2020-08-30 13:00:00 15.1 9 Norte 19 Nordeste 0 -- -- 62
2020-08-30 12:00:00 13.2 11 Noroeste 24 Noroeste 0 -- -- 70
2020-08-30 11:00:00 12.1 10 Noroeste 20 Noroeste 0 -- -- 77
2020-08-30 10:00:00 11.8 9 Oeste 14 Noroeste 0 -- -- 73
2020-08-30 09:00:00 11 8 Oeste 15 Oeste 0 -- -- 83
2020-08-30 08:00:00 9.4 0 Calma 8 Noroeste 0 -- -- 90
2020-08-30 07:00:00 9.9 3 Norte 9 Noroeste 0 -- -- 92
2020-08-30 06:00:00 9.7 2 Sudeste 10 Sudoeste 0 -- -- 91
2020-08-30 05:00:00 9.4 5 Sur 11 Sudoeste 0 -- -- 92
2020-08-30 04:00:00 8.9 0 Calma 11 Sudoeste 0 -- -- 91
2020-08-30 03:00:00 9.2 9 Sudoeste 12 Sudoeste 0 -- -- 92
2020-08-30 02:00:00 9.5 4 Sur 9 Sur 0 -- -- 90
2020-08-30 01:00:00 9.2 5 Sur 13 Sur 0 -- -- 88
2020-08-30 00:00:00 9 5 Sur 12 Sur 0 -- -- 88
2020-08-29 23:00:00 9.1 3 Sur 8 Oeste 0 -- -- 85
2020-08-29 22:00:00 9.9 6 Oeste 14 Noroeste 0 -- -- 83
2020-08-29 21:00:00 11.2 13 Noroeste 22 Noroeste 0 -- -- 86
2020-08-29 20:00:00 11.9 13 Noroeste 31 Noroeste 0.6 -- -- 91
2020-08-29 19:00:00 14 19 Noroeste 35 Noroeste 0 -- -- 75
2020-08-29 18:00:00 15.4 21 Noroeste 41 Norte 0 -- -- 68
2020-08-29 17:00:00 18.2 21 Norte 48 Noroeste 0 -- -- 54
2020-08-29 16:00:00 17.9 20 Noroeste 39 Norte 0 -- -- 54
2020-08-29 15:00:00 16.8 19 Noroeste 44 Noroeste 0 -- -- 60
2020-08-29 14:00:00 17.5 17 Noroeste 38 Noroeste 0 -- -- 60
2020-08-29 13:00:00 16.4 18 Noroeste 34 Noroeste 0 -- -- 59
2020-08-29 12:00:00 15.1 15 Noroeste 27 Noroeste 0 -- -- 63
2020-08-29 11:00:00 14.5 8 Noroeste 15 Noroeste 0 -- -- 68
2020-08-29 10:00:00 13.3 9 Noroeste 18 Noroeste 0 -- -- 75
2020-08-29 09:00:00 11.1 7 Oeste 12 Oeste 0 -- -- 85
2020-08-29 08:00:00 8.7 6 Sudoeste 10 Sudoeste 0 -- -- 92
2020-08-29 07:00:00 9.2 0 Calma 9 Noroeste 0 -- -- 89
2020-08-29 06:00:00 9.3 4 Sudoeste 8 Sudoeste 0 -- -- 91
2020-08-29 05:00:00 9.2 3 Sudoeste 6 Sudoeste 0 -- -- 92
2020-08-29 04:00:00 8.1 0 Calma 3 Noroeste 0 -- -- 90
2020-08-29 03:00:00 9.6 0 Calma 4 Sudoeste 0 -- -- 89
2020-08-29 02:00:00 12.1 0 Calma 5 Este 0 -- -- 86
2020-08-29 01:00:00 12.4 5 Este 6 Este 0 -- -- 82
2020-08-29 00:00:00 13.2 0 Calma 10 Nordeste 0 -- -- 81
2020-08-28 23:00:00 13.5 5 Norte 11 Norte 0 -- -- 76
2020-08-28 22:00:00 13.7 6 Norte 12 Norte 0 -- -- 74
2020-08-28 21:00:00 13.8 7 Norte 18 Norte 0 -- -- 76
2020-08-28 20:00:00 14.3 12 Norte 23 Nordeste 0 -- -- 76
2020-08-28 19:00:00 15.2 13 Norte 21 Norte 0 -- -- 76
2020-08-28 18:00:00 15.8 8 Nordeste 19 Nordeste 0 -- -- 80
2020-08-28 17:00:00 15.9 6 Este 18 Nordeste 0 -- -- 84
2020-08-28 16:00:00 15.4 9 Norte 22 Norte 0.2 -- -- 91
2020-08-28 15:00:00 17 8 Nordeste 15 Nordeste 0 -- -- 85
2020-08-28 14:00:00 15.8 8 Nordeste 13 Norte 0.2 -- -- 96
2020-08-28 13:00:00 15.9 5 Noroeste 11 Norte 0 -- -- 94
2020-08-28 12:00:00 15.8 6 Noroeste 14 Nordeste 0 -- -- 97
2020-08-28 11:00:00 16.4 11 Nordeste 15 Nordeste 0.2 -- -- 93
2020-08-28 10:00:00 16 9 Noroeste 21 Nordeste 1.8 -- -- 98
2020-08-28 09:00:00 18.2 10 Este 18 Este 0 -- -- 91
2020-08-28 08:00:00 18.2 8 Sudeste 13 Sudeste 0 -- -- 90
2020-08-28 07:00:00 18.2 6 Sudeste 13 Sudeste 0 -- -- 89
2020-08-28 06:00:00 18.4 6 Sudeste 12 Sudeste 0 -- -- 88
2020-08-28 05:00:00 18.5 5 Este 12 Este 0 -- -- 87
2020-08-28 04:00:00 18.4 8 Este 14 Este 0 -- -- 88
2020-08-28 03:00:00 18.8 8 Este 14 Este 0 -- -- 86
2020-08-28 02:00:00 18.5 10 Este 24 Este 0 -- -- 87
2020-08-28 01:00:00 18.3 13 Este 25 Este 0 -- -- 88
2020-08-28 00:00:00 18.9 14 Este 25 Este 0 -- -- 87
2020-08-27 23:00:00 19.3 18 Este 26 Este 0 -- -- 86
2020-08-27 22:00:00 19.5 15 Este 25 Este 0 -- -- 86
2020-08-27 21:00:00 21.3 15 Este 25 Nordeste 0 -- -- 79
2020-08-27 20:00:00 24.8 17 Nordeste 29 Este 0 -- -- 66
2020-08-27 19:00:00 27.5 23 Nordeste 38 Nordeste 0 -- -- 56
2020-08-27 18:00:00 30.9 18 Este 32 Nordeste 0 -- -- 47
2020-08-27 17:00:00 31.9 6 Nordeste 20 Sur 0 -- -- 36
2020-08-27 16:00:00 30.6 6 Norte 19 Noroeste 0 -- -- 44
2020-08-27 15:00:00 29.8 10 Norte 22 Nordeste 0 -- -- 45
2020-08-27 14:00:00 28.4 7 Norte 21 Norte 0 -- -- 50
2020-08-27 13:00:00 27.8 5 Sudoeste 16 Sudeste 0 -- -- 50
2020-08-27 12:00:00 25.9 5 Sudeste 12 Sudeste 0 -- -- 56
2020-08-27 11:00:00 22.2 3 Sudoeste 12 Norte 0 -- -- 73
2020-08-27 10:00:00 19.9 3 Nordeste 5 Nordeste 0 -- -- 83
2020-08-27 09:00:00 16.7 3 Sur 12 Sur 0 -- -- 94
2020-08-27 08:00:00 14.2 4 Sur 11 Sudoeste 0 -- -- 98
2020-08-27 07:00:00 14.3 2 Sudoeste 8 Sudeste 0 -- -- 99
2020-08-27 06:00:00 13.9 0 Calma 2 Oeste 0 -- -- 97
2020-08-27 05:00:00 14.9 0 Calma 4 Oeste 0 -- -- 94
2020-08-27 04:00:00 16.3 5 Sudoeste 9 Sur 0 -- -- 94
2020-08-27 03:00:00 16.5 4 Sudoeste 13 Sur 0 -- -- 94
2020-08-27 02:00:00 17.4 7 Sur 15 Este 0 -- -- 92
2020-08-27 01:00:00 18.4 13 Este 18 Sudeste 0 -- -- 90
2020-08-27 00:00:00 19.3 10 Sudeste 15 Este 0 -- -- 86
2020-08-26 23:00:00 20.2 13 Este 18 Este 0 -- -- 83
2020-08-26 22:00:00 21.5 14 Este 21 Este 0 -- -- 77
2020-08-26 21:00:00 23.8 14 Este 23 Este 0 -- -- 67
2020-08-26 20:00:00 27.5 16 Este 27 Este 0 -- -- 54
2020-08-26 19:00:00 29.7 17 Nordeste 30 Nordeste 0 -- -- 46
2020-08-26 18:00:00 31.4 9 Norte 19 Norte 0 -- -- 37
2020-08-26 17:00:00 30.5 6 Norte 19 Noroeste 0 -- -- 39
2020-08-26 16:00:00 29.6 7 Norte 20 Noroeste 0 -- -- 42
2020-08-26 15:00:00 28.8 9 Norte 22 Este 0 -- -- 46
2020-08-26 14:00:00 27.4 8 Nordeste 18 Este 0 -- -- 51
2020-08-26 13:00:00 25.4 7 Nordeste 20 Este 0 -- -- 57
2020-08-26 12:00:00 23.4 9 Este 19 Este 0 -- -- 64
2020-08-26 11:00:00 21.1 6 Este 15 Este 0 -- -- 73
2020-08-26 10:00:00 18.8 6 Norte 10 Noroeste 0 -- -- 84
2020-08-26 09:00:00 16.3 4 Sudoeste 9 Sudoeste 0 -- -- 94
2020-08-26 08:00:00 13.2 6 Sudoeste 9 Sudoeste 0 -- -- 99
2020-08-26 07:00:00 12.6 0 Calma 9 Sudeste 0 -- -- 95
2020-08-26 06:00:00 13.7 3 Sur 8 Sur 0 -- -- 95
2020-08-26 05:00:00 14.3 9 Sur 17 Sudeste 0 -- -- 95
2020-08-26 04:00:00 14.8 13 Sudeste 16 Sudeste 0 -- -- 94
2020-08-26 03:00:00 15.3 10 Sudeste 15 Sudeste 0 -- -- 90
2020-08-26 02:00:00 14.9 5 Sudoeste 15 Sudeste 0 -- -- 89
2020-08-26 01:00:00 16.3 5 Sudeste 18 Sudeste 0 -- -- 82
2020-08-26 00:00:00 17.2 12 Sudeste 19 Este 0 -- -- 77
2020-08-25 23:00:00 18.8 10 Sudeste 23 Este 0 -- -- 69
2020-08-25 22:00:00 20.2 14 Este 22 Este 0 -- -- 65
2020-08-25 21:00:00 22.4 14 Este 21 Este 0 -- -- 59
2020-08-25 20:00:00 26 15 Nordeste 33 Nordeste 0 -- -- 51
2020-08-25 19:00:00 32.6 9 Noroeste 27 Oeste 0 -- -- 23
2020-08-25 18:00:00 33.4 13 Oeste 27 Oeste 0 -- -- 22
2020-08-25 17:00:00 33.1 19 Sudoeste 32 Oeste 0 -- -- 24
2020-08-25 16:00:00 32.9 12 Sudoeste 27 Oeste 0 -- -- 27
2020-08-25 15:00:00 31.9 15 Oeste 30 Oeste 0 -- -- 28
2020-08-25 14:00:00 30.7 18 Oeste 32 Oeste 0 -- -- 31
2020-08-25 13:00:00 28.4 8 Nordeste 13 Este 0 -- -- 36
2020-08-25 12:00:00 25.1 5 Nordeste 11 Norte 0 -- -- 42
2020-08-25 11:00:00 21.8 2 Nordeste 9 Nordeste 0 -- -- 52
2020-08-25 10:00:00 18.6 0 Calma 6 Oeste 0 -- -- 63
2020-08-25 09:00:00 14.1 5 Sudoeste 8 Sudoeste 0 -- -- 77
2020-08-25 08:00:00 10.2 0 Calma 8 Sudoeste 0 -- -- 90
2020-08-25 07:00:00 9.6 0 Calma 4 Oeste 0 -- -- 89
2020-08-25 06:00:00 11.6 4 Sudoeste 10 Sudoeste 0 -- -- 82
2020-08-25 05:00:00 12 3 Sudoeste 10 Sudoeste 0 -- -- 82
2020-08-25 04:00:00 12.4 5 Sudoeste 9 Sudoeste 0 -- -- 82
2020-08-25 03:00:00 12.8 3 Sudoeste 10 Sur 0 -- -- 83
2020-08-25 02:00:00 13.7 4 Sudoeste 14 Sur 0 -- -- 80
2020-08-25 01:00:00 14.8 6 Sur 14 Sur 0 -- -- 76
2020-08-25 00:00:00 16.1 7 Sudoeste 12 Sur 0 -- -- 72
2020-08-24 23:00:00 18.9 6 Sur 22 Sudeste 0 -- -- 58
2020-08-24 22:00:00 20.3 12 Sudeste 19 Sudeste 0 -- -- 54
2020-08-24 21:00:00 23 10 Sudeste 13 Sudeste 0 -- -- 46
2020-08-24 20:00:00 26.1 0 Calma 9 Oeste 0 -- -- 37
2020-08-24 19:00:00 26.1 5 Nordeste 13 Noroeste 0 -- -- 39
2020-08-24 18:00:00 26.3 8 Norte 18 Nordeste 0 -- -- 39
2020-08-24 17:00:00 25.8 8 Noroeste 18 Nordeste 0 -- -- 44
2020-08-24 16:00:00 25.7 10 Norte 19 Noroeste 0 -- -- 44
2020-08-24 15:00:00 24 7 Norte 19 Sudeste 0 -- -- 49
2020-08-24 14:00:00 22.6 11 Nordeste 29 Este 0 -- -- 52
2020-08-24 13:00:00 20.7 10 Este 21 Este 0 -- -- 58
2020-08-24 12:00:00 19.3 8 Nordeste 21 Este 0 -- -- 64
2020-08-24 11:00:00 17.4 11 Este 22 Este 0 -- -- 71
2020-08-24 10:00:00 16.1 4 Este 10 Este 0 -- -- 78
2020-08-24 09:00:00 13 0 Calma 2 Sudoeste 0 -- -- 93
2020-08-24 08:00:00 9.5 0 Calma 3 Sudoeste 0 -- -- 100
2020-08-24 07:00:00 9.9 0 Calma 5 Sudoeste 0 -- -- 95
2020-08-24 06:00:00 11.6 0 Calma 13 Sudeste 0 -- -- 94
2020-08-24 05:00:00 12.5 8 Sudeste 14 Este 0 -- -- 93
2020-08-24 04:00:00 12.4 0 Calma 13 Sudeste 0 -- -- 93
2020-08-24 03:00:00 12.9 8 Sudeste 15 Este 0 -- -- 93
2020-08-24 02:00:00 13.2 9 Sudeste 17 Este 0 -- -- 92
2020-08-24 01:00:00 13.6 10 Sudeste 17 Este 0 -- -- 91
2020-08-24 00:00:00 14.2 12 Sudeste 19 Este 0 -- -- 88
2020-08-23 23:00:00 15.4 14 Este 23 Este 0 -- -- 84
2020-08-23 22:00:00 16.7 14 Este 33 Este 0 -- -- 77
2020-08-23 21:00:00 18.9 15 Este 27 Este 0 -- -- 67
2020-08-23 20:00:00 22.4 16 Este 26 Este 0 -- -- 52
2020-08-23 19:00:00 24.3 17 Este 27 Este 0 -- -- 46
2020-08-23 18:00:00 24.8 11 Nordeste 21 Nordeste 0 -- -- 44
2020-08-23 17:00:00 24.5 8 Nordeste 34 Nordeste 0 -- -- 42
2020-08-23 16:00:00 24.4 12 Nordeste 25 Este 0 -- -- 44
2020-08-23 15:00:00 23.4 11 Nordeste 24 Nordeste 0 -- -- 47
2020-08-23 14:00:00 22.3 12 Nordeste 26 Nordeste 0 -- -- 49
2020-08-23 13:00:00 21.1 12 Este 22 Este 0 -- -- 55
2020-08-23 12:00:00 20 7 Este 20 Este 0 -- -- 59
2020-08-23 11:00:00 18.7 12 Nordeste 21 Este 0 -- -- 63
2020-08-23 10:00:00 17.2 10 Nordeste 18 Este 0 -- -- 75
2020-08-23 09:00:00 15.2 9 Este 13 Este 0 -- -- 90
2020-08-23 08:00:00 11.5 0 Calma 0 Calma 0 -- -- 98
2020-08-23 07:00:00 11.9 0 Calma 0 Calma 0 -- -- 95
2020-08-23 06:00:00 12.8 0 Calma 13 Este 0 -- -- 95
2020-08-23 05:00:00 14.3 12 Este 18 Este 0 -- -- 94
2020-08-23 04:00:00 14.6 12 Este 19 Este 0 -- -- 92
2020-08-23 03:00:00 15.8 10 Sudeste 15 Sudeste 0 -- -- 89
2020-08-23 02:00:00 16 4 Este 10 Este 0 -- -- 87
2020-08-23 01:00:00 15.9 8 Este 15 Este 0 -- -- 87
2020-08-23 00:00:00 15.8 10 Este 15 Este 0 -- -- 87
2020-08-22 23:00:00 15.4 14 Este 20 Este 0 -- -- 87
2020-08-22 22:00:00 16 10 Este 14 Este 0 -- -- 85
2020-08-22 21:00:00 18.2 12 Nordeste 26 Este 0 -- -- 79
2020-08-22 20:00:00 21.2 20 Nordeste 32 Nordeste 0 -- -- 67
2020-08-22 19:00:00 23.8 22 Este 36 Este 0 -- -- 58
2020-08-22 18:00:00 26.2 3 Norte 18 Noroeste 0 -- -- 38
2020-08-22 17:00:00 25.7 6 Nordeste 20 Norte 0 -- -- 43
2020-08-22 16:00:00 24.8 10 Nordeste 18 Norte 0 -- -- 45
2020-08-22 15:00:00 24.1 7 Norte 19 Norte 0 -- -- 47
2020-08-22 14:00:00 23.4 8 Noroeste 16 Norte 0 -- -- 55
2020-08-22 13:00:00 22 8 Noroeste 17 Nordeste 0 -- -- 61
2020-08-22 12:00:00 20.8 7 Nordeste 14 Nordeste 0 -- -- 65
2020-08-22 11:00:00 19.3 5 Noroeste 14 Nordeste 0 -- -- 74
2020-08-22 10:00:00 18.1 2 Nordeste 8 Nordeste 0 -- -- 79
2020-08-22 09:00:00 16.7 4 Este 8 Este 0 -- -- 87
2020-08-22 08:00:00 15.1 0 Calma 7 Sudeste 0 -- -- 96
2020-08-22 07:00:00 14.8 0 Calma 6 Oeste 0 -- -- 98
2020-08-22 06:00:00 14.7 5 Este 13 Sudeste 0 -- -- 97
2020-08-22 05:00:00 15.5 8 Este 9 Este 0 -- -- 95
2020-08-22 04:00:00 16 7 Este 12 Este 0 -- -- 95
2020-08-22 03:00:00 16.3 4 Este 15 Este 0 -- -- 93
2020-08-22 02:00:00 16 8 Este 12 Este 0 -- -- 97
2020-08-22 01:00:00 15.6 5 Este 18 Este 0 -- -- 96
2020-08-22 00:00:00 16.1 11 Este 20 Este 0 -- -- 96